Time;durP1;ratioP1;P1;durP2;ratioP2;P2;SDS_P1;SDS_P2;PMS_P1;PMS_P2;Temp;Humidity;BMP_temperature;BMP_pressure;BME280_temperature;BME280_humidity;BME280_pressure;Samples;Min_cycle;Max_cycle;Signal;HPM_P1;HPM_P2
2022/04/03 00:01:55;;;;;;;6.60;6.10;;;5.50;81.10;;;;;;5049926;28;20535;-66
2022/04/03 00:04:21;;;;;;;7.20;6.60;;;5.60;81.40;;;;;;5051746;28;20227;-65
2022/04/03 00:06:47;;;;;;;6.43;5.93;;;6.00;81.90;;;;;;5051682;28;20592;-65
2022/04/03 00:09:12;;;;;;;6.27;5.70;;;5.80;81.60;;;;;;5050728;28;20663;-65
2022/04/03 00:11:38;;;;;;;6.60;6.00;;;5.40;81.30;;;;;;5052045;28;20173;-65
2022/04/03 00:14:04;;;;;;;8.07;6.20;;;6.10;82.40;;;;;;5051318;28;20622;-65
2022/04/03 00:16:30;;;;;;;7.53;6.93;;;6.00;82.30;;;;;;5050486;28;20220;-65
2022/04/03 00:18:56;;;;;;;7.05;6.40;;;5.90;81.60;;;;;;5050726;28;20193;-65
2022/04/03 00:21:22;;;;;;;7.07;6.17;;;5.20;81.70;;;;;;5051547;28;20226;-65
2022/04/03 00:23:48;;;;;;;7.80;6.60;;;5.20;83.20;;;;;;5051852;28;20185;-65
2022/04/03 00:26:14;;;;;;;6.57;5.97;;;5.70;84.40;;;;;;5054409;28;20411;-65
2022/04/03 00:28:40;;;;;;;7.23;6.63;;;5.50;83.80;;;;;;5055224;28;20234;-65
2022/04/03 00:31:06;;;;;;;6.50;5.93;;;5.40;84.10;;;;;;5054921;28;20622;-65
2022/04/03 00:33:31;;;;;;;7.53;6.70;;;5.90;84.00;;;;;;5055072;28;20181;-65
2022/04/03 00:35:57;;;;;;;7.60;7.00;;;5.90;84.30;;;;;;5054176;28;20538;-66
2022/04/03 00:38:23;;;;;;;8.20;7.40;;;6.00;84.20;;;;;;5055059;28;20205;-65
2022/04/03 00:40:49;;;;;;;8.00;7.30;;;5.50;84.60;;;;;;5055155;28;20178;-65
2022/04/03 00:43:15;;;;;;;7.07;6.45;;;6.00;86.20;;;;;;5054415;28;20250;-65
2022/04/03 00:45:48;;;;;;;7.60;6.90;;;6.10;86.10;;;;;;5053870;28;20181;-65
2022/04/03 00:48:14;;;;;;;7.68;6.85;;;5.50;85.90;;;;;;5054715;28;20769;-65
2022/04/03 00:50:42;;;;;;;8.10;7.30;;;5.40;87.20;;;;;;5055303;28;20565;-65
2022/04/03 00:53:08;;;;;;;7.97;7.28;;;5.80;89.20;;;;;;5054119;28;20185;-65
2022/04/03 00:55:34;;;;;;;7.43;6.65;;;5.60;89.50;;;;;;5055444;28;20181;-65
2022/04/03 00:58:00;;;;;;;7.60;7.00;;;5.80;90.20;;;;;;5053930;28;20264;-65
2022/04/03 01:00:26;;;;;;;9.40;8.13;;;5.80;90.40;;;;;;5055123;28;20189;-65
2022/04/03 01:02:52;;;;;;;7.53;6.87;;;5.90;90.80;;;;;;5053802;28;20170;-65
2022/04/03 01:05:18;;;;;;;7.33;6.73;;;5.60;90.90;;;;;;5054425;28;20229;-65
2022/04/03 01:07:44;;;;;;;7.97;7.27;;;5.40;91.00;;;;;;5036673;28;20173;-65
2022/04/03 01:10:10;;;;;;;7.07;6.32;;;5.20;91.10;;;;;;5052541;28;20241;-65
2022/04/03 01:12:45;;;;;;;6.63;6.07;;;5.10;91.40;;;;;;5054547;28;20212;-65
2022/04/03 01:15:14;;;;;;;7.55;6.70;;;5.70;91.40;;;;;;5053691;28;20185;-65
2022/04/03 01:17:41;;;;;;;8.30;7.60;;;5.50;91.20;;;;;;5054356;28;20218;-65
2022/04/03 01:20:07;;;;;;;8.55;7.75;;;5.50;91.00;;;;;;5053601;28;20496;-65
2022/04/03 01:22:33;;;;;;;8.90;8.10;;;5.60;91.00;;;;;;5054447;28;20186;-65
2022/04/03 01:24:59;;;;;;;8.40;7.70;;;5.60;90.90;;;;;;5053513;28;20239;-66
2022/04/03 01:27:25;;;;;;;8.40;7.60;;;5.70;91.00;;;;;;5054174;28;20528;-65
2022/04/03 01:29:52;;;;;;;8.33;7.60;;;5.60;91.20;;;;;;5054098;28;20181;-65
2022/04/03 01:32:21;;;;;;;8.90;8.10;;;5.60;91.20;;;;;;5052353;28;20387;-65
2022/04/03 01:34:47;;;;;;;8.52;7.75;;;5.80;91.30;;;;;;5053685;28;20529;-65
2022/04/03 01:37:13;;;;;;;7.87;7.23;;;5.70;91.40;;;;;;5052221;28;20303;-65
2022/04/03 01:39:39;;;;;;;9.07;7.70;;;5.30;91.20;;;;;;5053881;28;20391;-65
2022/04/03 01:42:04;;;;;;;8.60;7.90;;;5.70;91.50;;;;;;5053152;28;20478;-65
2022/04/03 01:44:30;;;;;;;9.90;7.73;;;5.60;91.60;;;;;;5053872;28;20244;-65
2022/04/03 01:46:56;;;;;;;8.57;7.77;;;5.80;92.10;;;;;;5052822;28;20182;-73
2022/04/03 01:49:22;;;;;;;8.65;7.85;;;5.60;92.30;;;;;;5053622;28;20217;-65
2022/04/03 01:51:48;;;;;;;10.00;7.23;;;5.70;92.10;;;;;;5054051;28;20198;-65
2022/04/03 01:54:14;;;;;;;8.10;7.40;;;5.10;92.10;;;;;;5052851;28;20419;-65
2022/04/03 01:56:40;;;;;;;7.83;7.13;;;5.60;92.50;;;;;;5053541;28;20178;-65
2022/04/03 01:59:06;;;;;;;8.05;7.05;;;5.40;92.50;;;;;;5052736;28;20901;-66
2022/04/03 02:01:34;;;;;;;8.85;7.97;;;5.80;92.70;;;;;;5053861;28;20201;-65
2022/04/03 02:04:01;;;;;;;8.57;7.30;;;5.60;92.70;;;;;;5051715;28;20538;-75
2022/04/03 02:06:27;;;;;;;8.73;7.45;;;5.60;92.80;;;;;;5052797;28;20818;-65
2022/04/03 02:08:54;;;;;;;8.32;7.63;;;5.10;92.70;;;;;;5053735;28;20216;-65
2022/04/03 02:11:20;;;;;;;10.13;8.43;;;5.00;92.80;;;;;;5052937;28;20448;-65
2022/04/03 02:13:45;;;;;;;8.43;7.67;;;5.20;92.90;;;;;;5035570;28;20182;-65
2022/04/03 02:16:11;;;;;;;8.93;8.03;;;4.90;92.80;;;;;;5052832;28;20415;-65
2022/04/03 02:18:37;;;;;;;9.30;8.43;;;5.50;93.10;;;;;;5053025;28;20220;-65
2022/04/03 02:21:03;;;;;;;8.10;7.40;;;5.50;93.10;;;;;;5051109;28;20222;-66
2022/04/03 02:23:29;;;;;;;8.30;7.60;;;5.10;92.80;;;;;;5053264;28;20894;-65
2022/04/03 02:25:55;;;;;;;11.07;7.50;;;5.70;93.10;;;;;;5051724;28;20184;-65
2022/04/03 02:28:21;;;;;;;7.30;6.70;;;5.10;93.00;;;;;;5051230;28;20442;-65
2022/04/03 02:30:48;;;;;;;8.00;6.80;;;5.60;93.50;;;;;;5053091;28;20192;-65
2022/04/03 02:33:13;;;;;;;10.10;8.18;;;5.50;93.40;;;;;;5051002;28;20175;-65
2022/04/03 02:35:39;;;;;;;9.53;8.33;;;5.10;93.00;;;;;;5052101;28;20257;-65
2022/04/03 02:38:05;;;;;;;8.63;7.90;;;5.50;93.50;;;;;;5051965;28;20233;-65
2022/04/03 02:40:31;;;;;;;11.88;8.82;;;5.00;93.50;;;;;;5052827;28;20406;-65
2022/04/03 02:42:57;;;;;;;11.70;8.20;;;5.40;93.70;;;;;;5051856;28;20184;-65
2022/04/03 02:45:23;;;;;;;8.63;7.72;;;5.10;93.50;;;;;;5051051;28;20169;-65
2022/04/03 02:47:55;;;;;;;9.57;8.07;;;5.40;93.60;;;;;;5052937;28;20174;-65
2022/04/03 02:50:24;;;;;;;8.32;7.57;;;5.30;93.80;;;;;;5050891;28;20828;-65
2022/04/03 02:52:51;;;;;;;8.48;7.60;;;5.30;93.80;;;;;;5052315;28;20181;-65
2022/04/03 02:55:18;;;;;;;7.90;7.20;;;5.30;93.80;;;;;;5052062;28;20180;-65
2022/04/03 02:57:44;;;;;;;8.77;7.88;;;5.40;93.90;;;;;;5052763;28;20259;-65
2022/04/03 03:00:14;;;;;;;12.53;7.37;;;5.20;94.10;;;;;;5052334;28;20181;-65
2022/04/03 03:02:44;;;;;;;8.75;7.95;;;5.30;94.30;;;;;;5053047;28;20174;-65
2022/04/03 03:05:13;;;;;;;8.40;7.47;;;4.90;94.00;;;;;;5050547;28;20182;-65
2022/04/03 03:07:41;;;;;;;8.20;7.47;;;5.40;94.30;;;;;;5052501;28;20174;-65
2022/04/03 03:10:09;;;;;;;10.65;7.75;;;5.00;94.20;;;;;;5052048;28;20174;-65
2022/04/03 03:12:35;;;;;;;8.23;7.53;;;5.20;94.30;;;;;;5052295;28;20165;-65
2022/04/03 03:15:04;;;;;;;8.77;7.88;;;5.30;94.70;;;;;;5052133;28;20627;-74
2022/04/03 03:17:30;;;;;;;9.32;7.55;;;5.30;94.40;;;;;;5050828;28;20206;-65
2022/04/03 03:19:56;;;;;;;8.35;7.65;;;5.10;94.20;;;;;;5052277;28;20181;-65
2022/04/03 03:22:22;;;;;;;9.10;7.40;;;5.30;94.30;;;;;;5051292;28;20244;-65
2022/04/03 03:24:48;;;;;;;9.10;8.30;;;5.20;94.50;;;;;;5050778;28;20186;-65
2022/04/03 03:27:13;;;;;;;8.70;7.90;;;4.80;94.40;;;;;;5050252;28;20399;-65
2022/04/03 03:29:39;;;;;;;8.80;7.50;;;4.80;94.40;;;;;;5051701;28;20189;-65
2022/04/03 03:32:05;;;;;;;9.63;7.80;;;4.70;94.40;;;;;;5051468;28;20213;-75
2022/04/03 03:34:31;;;;;;;8.10;7.40;;;5.20;94.70;;;;;;5051918;28;20239;-65
2022/04/03 03:36:57;;;;;;;8.50;7.70;;;4.80;94.80;;;;;;5052195;28;20205;-65
2022/04/03 03:39:24;;;;;;;8.73;7.93;;;4.70;95.00;;;;;;5051307;28;20559;-65
2022/04/03 03:41:49;;;;;;;9.52;8.45;;;4.80;95.00;;;;;;5052216;28;20178;-65
2022/04/03 03:44:15;;;;;;;9.13;8.23;;;4.60;95.00;;;;;;5051390;28;20539;-65
2022/04/03 03:46:41;;;;;;;9.87;8.87;;;5.20;95.30;;;;;;5051665;28;20188;-65
2022/04/03 03:49:08;;;;;;;10.27;9.20;;;4.80;95.10;;;;;;5051114;28;20189;-76
2022/04/03 03:51:37;;;;;;;9.90;8.95;;;5.20;95.30;;;;;;5052121;28;20563;-65
2022/04/03 03:54:04;;;;;;;9.80;8.90;;;4.70;95.10;;;;;;5051457;28;20178;-65
2022/04/03 03:56:30;;;;;;;8.80;8.05;;;5.10;95.30;;;;;;5051587;28;20173;-65
2022/04/03 03:58:56;;;;;;;9.90;8.93;;;5.00;95.10;;;;;;5051549;28;20197;-65
2022/04/03 04:01:22;;;;;;;9.77;8.60;;;4.90;95.10;;;;;;5054868;28;20181;-65
2022/04/03 04:03:48;;;;;;;8.57;7.87;;;5.00;95.20;;;;;;5055921;28;20878;-65
2022/04/03 04:06:15;;;;;;;9.30;8.40;;;4.90;95.20;;;;;;5054079;28;20446;-65
2022/04/03 04:08:41;;;;;;;9.70;8.80;;;4.60;95.10;;;;;;5055801;28;20182;-65
2022/04/03 04:11:07;;;;;;;9.25;8.45;;;5.00;95.50;;;;;;5055819;28;20641;-73
2022/04/03 04:13:33;;;;;;;9.32;8.43;;;4.90;95.90;;;;;;5055863;28;20181;-65
2022/04/03 04:15:59;;;;;;;8.80;7.90;;;5.00;95.80;;;;;;5055871;28;20260;-65
2022/04/03 04:18:25;;;;;;;10.30;9.30;;;5.00;96.30;;;;;;5054709;28;20301;-65
2022/04/03 04:20:52;;;;;;;10.48;9.27;;;4.70;95.90;;;;;;5055510;28;20308;-65
2022/04/03 04:23:19;;;;;;;10.48;8.40;;;4.60;95.70;;;;;;5054797;28;20626;-65
2022/04/03 04:25:48;;;;;;;9.10;8.05;;;5.00;96.00;;;;;;5055701;28;20170;-65
2022/04/03 04:28:13;;;;;;;9.85;8.95;;;5.00;96.20;;;;;;5053510;28;20261;-65
2022/04/03 04:30:40;;;;;;;9.57;8.68;;;4.50;95.90;;;;;;5055429;28;20666;-66
2022/04/03 04:33:09;;;;;;;9.83;8.87;;;4.40;95.80;;;;;;5055136;28;20178;-71
2022/04/03 04:35:35;;;;;;;8.50;7.78;;;4.70;95.90;;;;;;5054153;28;20633;-63
2022/04/03 04:38:02;;;;;;;7.93;7.28;;;4.90;96.10;;;;;;5055362;28;20213;-64
2022/04/03 04:40:28;;;;;;;8.30;7.60;;;5.00;96.20;;;;;;5054668;28;20310;-64
2022/04/03 04:42:55;;;;;;;8.90;8.00;;;5.00;96.00;;;;;;5054965;28;20212;-63
2022/04/03 04:45:21;;;;;;;9.18;8.10;;;4.90;95.90;;;;;;5054539;28;20763;-64
2022/04/03 04:47:48;;;;;;;8.60;7.90;;;5.00;95.90;;;;;;5055190;28;20182;-63
2022/04/03 04:50:15;;;;;;;9.07;8.20;;;5.10;96.00;;;;;;5054727;28;20174;-63
2022/04/03 04:52:42;;;;;;;11.13;8.52;;;5.00;96.00;;;;;;5054592;28;20178;-64
2022/04/03 04:55:09;;;;;;;9.63;8.75;;;4.50;95.70;;;;;;5054620;28;20232;-66
2022/04/03 04:57:38;;;;;;;9.35;8.55;;;4.90;96.10;;;;;;5056210;28;20233;-63
2022/04/03 05:00:09;;;;;;;9.95;8.80;;;4.40;96.00;;;;;;5055647;28;20174;-64
2022/04/03 05:02:35;;;;;;;14.80;11.55;;;5.00;96.20;;;;;;5054976;28;20181;-64
2022/04/03 05:05:01;;;;;;;16.05;12.02;;;4.50;95.80;;;;;;5055233;28;20252;-63
2022/04/03 05:07:28;;;;;;;10.60;9.50;;;4.90;96.20;;;;;;5049735;28;20269;-65
2022/04/03 05:09:54;;;;;;;10.35;9.35;;;5.00;96.40;;;;;;5039306;28;20178;-63
2022/04/03 05:12:20;;;;;;;9.83;9.00;;;5.00;96.40;;;;;;5052839;28;20173;-63
2022/04/03 05:14:48;;;;;;;9.80;8.95;;;4.80;96.60;;;;;;5049752;28;20399;-63
2022/04/03 05:17:13;;;;;;;11.02;9.52;;;4.70;96.60;;;;;;5054450;28;20312;-63
2022/04/03 05:19:40;;;;;;;8.43;7.73;;;4.80;96.60;;;;;;5059323;28;20209;-63
2022/04/03 05:22:06;;;;;;;9.90;8.95;;;5.00;96.60;;;;;;5052690;28;20959;-63
2022/04/03 05:24:32;;;;;;;9.87;8.97;;;4.40;96.20;;;;;;5053692;28;20185;-63
2022/04/03 05:26:57;;;;;;;9.17;8.37;;;4.70;96.10;;;;;;5058540;28;20702;-63
2022/04/03 05:29:23;;;;;;;9.87;8.93;;;4.70;96.10;;;;;;5054154;28;20174;-64
2022/04/03 05:31:49;;;;;;;8.90;8.10;;;4.50;96.20;;;;;;5053447;28;20182;-63
2022/04/03 05:34:15;;;;;;;10.00;9.00;;;4.80;96.40;;;;;;5053596;28;20178;-63
2022/04/03 05:36:40;;;;;;;9.87;8.10;;;4.90;96.20;;;;;;5051844;28;20555;-63
2022/04/03 05:39:06;;;;;;;9.27;8.33;;;4.60;95.70;;;;;;5053594;28;20184;-63
2022/04/03 05:41:33;;;;;;;9.10;8.30;;;4.70;95.50;;;;;;5052932;28;20266;-65
2022/04/03 05:44:00;;;;;;;9.82;8.82;;;4.60;95.60;;;;;;5054419;28;20519;-66
2022/04/03 05:46:26;;;;;;;9.05;8.25;;;5.10;96.00;;;;;;5052632;28;20182;-67
2022/04/03 05:48:51;;;;;;;9.80;8.90;;;5.10;95.80;;;;;;5053180;28;20181;-66
2022/04/03 05:51:17;;;;;;;9.70;8.70;;;4.70;95.40;;;;;;5053208;28;20416;-66
2022/04/03 05:53:43;;;;;;;9.20;8.40;;;5.00;95.60;;;;;;5053883;28;20178;-67
2022/04/03 05:56:09;;;;;;;9.50;8.60;;;5.30;95.80;;;;;;5053953;28;20178;-67
2022/04/03 05:58:35;;;;;;;9.63;8.43;;;5.00;95.70;;;;;;5053275;28;20205;-66
2022/04/03 06:01:01;;;;;;;9.35;8.38;;;4.60;95.50;;;;;;5053514;28;20182;-66
2022/04/03 06:03:27;;;;;;;9.93;8.90;;;5.20;95.80;;;;;;5053171;28;20185;-66
2022/04/03 06:05:52;;;;;;;9.63;8.70;;;4.90;95.80;;;;;;5053820;28;20286;-67
2022/04/03 06:08:18;;;;;;;9.40;8.60;;;4.60;95.70;;;;;;5053410;28;20264;-67
2022/04/03 06:10:44;;;;;;;9.43;8.50;;;4.50;95.80;;;;;;5053015;28;20618;-66
2022/04/03 06:13:14;;;;;;;10.10;9.00;;;4.80;96.10;;;;;;5053316;28;20207;-67
2022/04/03 06:15:42;;;;;;;9.77;8.90;;;4.50;96.30;;;;;;5053786;28;20174;-66
2022/04/03 06:18:10;;;;;;;9.95;8.95;;;5.00;96.50;;;;;;5049141;28;20206;-66
2022/04/03 06:20:36;;;;;;;9.02;8.13;;;4.60;96.30;;;;;;5046699;28;20225;-66
2022/04/03 06:23:03;;;;;;;9.83;9.03;;;5.20;96.50;;;;;;5053284;28;20182;-69
2022/04/03 06:25:29;;;;;;;9.40;8.45;;;5.00;96.40;;;;;;5053046;28;20480;-67
2022/04/03 06:27:55;;;;;;;10.27;9.38;;;4.70;96.00;;;;;;5053795;28;20189;-66
2022/04/03 06:30:22;;;;;;;9.80;8.90;;;5.20;96.50;;;;;;5046660;28;20205;-67
2022/04/03 06:32:48;;;;;;;9.93;8.95;;;4.90;96.50;;;;;;5046518;28;20181;-66
2022/04/03 06:35:14;;;;;;;9.40;8.23;;;5.10;96.70;;;;;;5053213;28;20209;-70
2022/04/03 06:37:40;;;;;;;8.27;7.53;;;4.80;96.10;;;;;;5053149;28;20209;-66
2022/04/03 06:40:07;;;;;;;8.38;7.57;;;5.20;95.80;;;;;;5054482;28;20622;-66
2022/04/03 06:42:34;;;;;;;8.95;7.75;;;5.10;95.60;;;;;;5072133;28;20181;-66
2022/04/03 06:45:01;;;;;;;8.25;7.45;;;5.20;95.40;;;;;;5073191;28;20174;-66
2022/04/03 06:47:27;;;;;;;7.57;6.88;;;4.80;95.20;;;;;;5072451;28;20187;-66
2022/04/03 06:49:53;;;;;;;8.65;7.60;;;5.50;95.10;;;;;;5066499;28;20181;-66
2022/04/03 06:52:18;;;;;;;9.00;8.10;;;5.40;94.50;;;;;;5051981;28;20182;-69
2022/04/03 06:54:44;;;;;;;8.63;7.60;;;5.10;93.80;;;;;;5052969;28;20243;-68
2022/04/03 06:57:14;;;;;;;9.77;8.87;;;5.40;94.00;;;;;;5052948;28;20210;-68
2022/04/03 06:59:41;;;;;;;8.98;8.18;;;5.50;94.30;;;;;;5053412;28;20482;-68
2022/04/03 07:02:07;;;;;;;9.20;8.30;;;5.70;94.20;;;;;;5048368;28;20534;-68
2022/04/03 07:04:34;;;;;;;9.52;7.63;;;5.40;93.60;;;;;;5045409;28;20181;-68
2022/04/03 07:07:00;;;;;;;7.97;7.18;;;5.60;93.30;;;;;;5052978;28;20174;-69
2022/04/03 07:09:25;;;;;;;7.70;7.00;;;5.70;92.80;;;;;;5052315;28;20193;-69
2022/04/03 07:11:51;;;;;;;9.37;6.77;;;5.90;92.30;;;;;;5053746;28;20183;-68
2022/04/03 07:14:17;;;;;;;7.63;6.87;;;5.50;91.80;;;;;;5070250;28;20217;-69
2022/04/03 07:16:42;;;;;;;7.80;7.00;;;6.20;91.90;;;;;;5073006;28;20619;-68
2022/04/03 07:19:08;;;;;;;8.20;6.30;;;6.10;91.50;;;;;;5059666;28;20237;-68
2022/04/03 07:21:34;;;;;;;7.90;6.47;;;6.10;91.30;;;;;;5052130;28;20246;-68
2022/04/03 07:24:00;;;;;;;7.60;6.80;;;5.80;91.00;;;;;;5052909;28;20263;-68
2022/04/03 07:26:25;;;;;;;6.57;6.07;;;6.10;91.10;;;;;;5052254;28;20182;-68
2022/04/03 07:28:51;;;;;;;6.60;6.00;;;6.30;90.90;;;;;;5062451;28;20398;-68
2022/04/03 07:31:17;;;;;;;7.50;5.87;;;5.80;90.30;;;;;;5053890;28;20195;-73
2022/04/03 07:33:42;;;;;;;6.47;5.97;;;6.50;90.70;;;;;;5050776;28;20246;-68
2022/04/03 07:36:08;;;;;;;5.83;5.43;;;6.10;90.20;;;;;;5052276;28;20182;-68
2022/04/03 07:38:34;;;;;;;6.20;5.67;;;6.10;89.00;;;;;;5052003;28;20208;-68
2022/04/03 07:41:00;;;;;;;6.10;5.50;;;6.50;88.60;;;;;;5052660;28;20241;-68
2022/04/03 07:43:26;;;;;;;8.03;5.73;;;6.80;88.70;;;;;;5033781;28;20655;-70
2022/04/03 07:45:53;;;;;;;6.20;5.60;;;6.40;86.20;;;;;;5062536;28;20513;-69
2022/04/03 07:48:22;;;;;;;6.17;5.67;;;6.50;90.00;;;;;;5052798;28;20556;-70
2022/04/03 07:50:48;;;;;;;9.43;6.20;;;6.90;97.30;;;;;;5049868;28;20517;-70
2022/04/03 07:53:13;;;;;;;5.90;5.50;;;8.20;99.90;;;;;;5050359;28;20561;-70
2022/04/03 07:55:39;;;;;;;6.70;6.00;;;8.90;97.80;;;;;;5050975;28;20413;-70
2022/04/03 07:58:06;;;;;;;7.70;5.70;;;9.40;93.90;;;;;;5051492;28;20206;-70
2022/04/03 08:00:33;;;;;;;5.20;4.80;;;10.00;92.70;;;;;;5049192;28;20534;-70
2022/04/03 08:02:59;;;;;;;5.93;5.30;;;10.50;92.20;;;;;;5051476;28;20415;-70
2022/04/03 08:05:25;;;;;;;5.20;4.80;;;10.80;85.80;;;;;;5048748;28;20803;-70
2022/04/03 08:07:51;;;;;;;6.47;5.90;;;11.10;80.10;;;;;;5050224;28;20508;-70
2022/04/03 08:10:20;;;;;;;9.10;7.70;;;11.30;78.10;;;;;;5050310;28;20514;-70
2022/04/03 08:12:47;;;;;;;7.47;6.37;;;11.70;87.00;;;;;;5048735;28;20407;-68
2022/04/03 08:15:14;;;;;;;5.63;5.20;;;12.10;78.00;;;;;;5050644;28;20436;-68
2022/04/03 08:17:41;;;;;;;6.00;5.20;;;12.00;67.70;;;;;;5048405;28;21013;-68
2022/04/03 08:20:09;;;;;;;4.77;4.47;;;11.70;62.70;;;;;;5048563;28;20430;-68
2022/04/03 08:22:37;;;;;;;5.00;4.50;;;11.30;62.80;;;;;;5050679;28;20412;-67
2022/04/03 08:25:03;;;;;;;4.70;4.30;;;11.00;63.10;;;;;;5044370;28;20557;-68
2022/04/03 08:27:42;;;;;;;4.13;3.83;;;10.70;62.80;;;;;;5049135;28;20769;-68
2022/04/03 08:30:13;;;;;;;4.80;4.43;;;10.40;62.10;;;;;;5044769;28;20443;-68
2022/04/03 08:32:41;;;;;;;4.30;4.00;;;10.20;63.00;;;;;;5051135;28;21002;-67
2022/04/03 08:35:08;;;;;;;5.37;4.87;;;9.90;64.90;;;;;;5048149;28;20428;-67
2022/04/03 08:37:34;;;;;;;7.50;4.37;;;9.70;66.10;;;;;;5050436;28;20460;-68
2022/04/03 08:40:00;;;;;;;6.23;4.50;;;9.50;67.30;;;;;;5030243;28;21993;-67
2022/04/03 08:42:26;;;;;;;3.73;3.43;;;9.40;68.20;;;;;;5049094;28;20412;-68
2022/04/03 08:44:52;;;;;;;3.50;3.20;;;9.20;69.40;;;;;;5050195;28;20416;-68
2022/04/03 08:47:20;;;;;;;4.10;3.70;;;9.00;67.50;;;;;;5054184;28;20416;-68
2022/04/03 08:49:47;;;;;;;4.50;4.10;;;9.10;66.50;;;;;;5054269;28;20424;-67
2022/04/03 08:52:13;;;;;;;5.67;4.37;;;9.10;69.20;;;;;;5053343;28;20425;-68
2022/04/03 08:54:40;;;;;;;4.40;4.10;;;9.10;66.50;;;;;;5053848;28;20455;-68
2022/04/03 08:57:06;;;;;;;4.50;4.20;;;9.00;66.20;;;;;;5055100;28;20463;-68
2022/04/03 08:59:32;;;;;;;4.40;4.10;;;9.10;66.90;;;;;;5054609;28;20774;-68
2022/04/03 09:01:58;;;;;;;4.20;3.90;;;9.10;69.70;;;;;;5050808;28;20444;-68
2022/04/03 09:04:24;;;;;;;5.27;4.37;;;9.20;67.30;;;;;;5054519;28;20265;-78
2022/04/03 09:07:00;;;;;;;6.43;4.73;;;9.10;68.00;;;;;;5053011;28;20186;-67
2022/04/03 09:09:27;;;;;;;4.40;4.10;;;9.00;72.10;;;;;;5053938;28;20518;-70
2022/04/03 09:12:10;;;;;;;77.00;66.73;;;9.10;72.20;;;;;;5057416;28;20469;-68
2022/04/03 09:14:48;;;;;;;42.53;26.83;;;9.20;69.40;;;;;;5055227;28;20459;-68
2022/04/03 09:17:32;;;;;;;5.33;4.83;;;9.30;67.60;;;;;;5034625;28;20455;-67
2022/04/03 09:20:06;;;;;;;4.97;4.53;;;9.40;63.40;;;;;;5039421;28;20425;-67
2022/04/03 09:22:35;;;;;;;6.53;4.40;;;9.50;64.90;;;;;;5061978;28;20475;-68
2022/04/03 09:25:02;;;;;;;5.23;4.23;;;9.60;64.20;;;;;;5054941;28;20799;-67
2022/04/03 09:27:27;;;;;;;4.73;4.43;;;9.60;67.30;;;;;;5054574;28;20415;-67
2022/04/03 09:30:07;;;;;;;5.33;4.93;;;9.70;64.70;;;;;;5053516;28;20421;-67
2022/04/03 09:32:34;;;;;;;5.03;4.63;;;9.80;62.30;;;;;;5054652;28;20628;-67
2022/04/03 09:35:00;;;;;;;4.77;4.33;;;9.80;61.70;;;;;;5055001;28;20421;-67
2022/04/03 09:37:26;;;;;;;4.20;4.00;;;9.80;58.90;;;;;;5054065;28;20946;-69
2022/04/03 09:39:53;;;;;;;4.30;4.00;;;9.80;58.00;;;;;;5055133;28;20429;-67
2022/04/03 09:42:19;;;;;;;5.03;4.60;;;9.90;57.60;;;;;;5054146;28;20465;-69
2022/04/03 09:44:46;;;;;;;4.33;4.03;;;10.00;59.50;;;;;;5042548;28;20431;-68
2022/04/03 09:47:13;;;;;;;5.50;5.10;;;10.10;58.80;;;;;;5055845;28;20414;-68
2022/04/03 09:49:44;;;;;;;4.90;4.60;;;10.20;59.30;;;;;;5061721;28;20965;-68
2022/04/03 09:52:10;;;;;;;5.10;4.70;;;10.30;57.30;;;;;;5073584;28;20597;-68
2022/04/03 09:54:39;;;;;;;4.33;4.00;;;10.30;57.00;;;;;;5068862;28;20417;-69
2022/04/03 09:57:23;;;;;;;4.57;4.23;;;10.30;56.10;;;;;;5054536;28;21018;-68
2022/04/03 09:59:51;;;;;;;72.33;45.20;;;10.30;54.80;;;;;;5060104;28;20553;-68
2022/04/03 10:02:17;;;;;;;111.77;72.17;;;10.50;54.00;;;;;;5053643;28;20428;-68
2022/04/03 10:04:45;;;;;;;5.10;4.60;;;10.40;53.40;;;;;;5053414;28;20414;-68
2022/04/03 10:07:13;;;;;;;4.30;4.00;;;10.30;55.40;;;;;;5054173;28;20511;-67
2022/04/03 10:09:48;;;;;;;4.97;4.40;;;10.30;56.30;;;;;;5053196;28;20411;-67
2022/04/03 10:12:18;;;;;;;4.30;4.00;;;10.30;57.20;;;;;;5052608;28;20930;-67
2022/04/03 10:14:45;;;;;;;3.70;3.40;;;10.40;56.30;;;;;;5053021;28;20410;-67
2022/04/03 10:17:12;;;;;;;3.90;3.70;;;10.40;57.30;;;;;;5053596;28;20463;-67
2022/04/03 10:19:38;;;;;;;4.30;4.00;;;10.30;56.30;;;;;;5052530;28;20843;-67
2022/04/03 10:22:09;;;;;;;4.70;4.30;;;10.20;57.50;;;;;;5053428;28;20464;-67
2022/04/03 10:24:36;;;;;;;4.80;4.30;;;10.10;56.70;;;;;;5051568;28;20414;-67
2022/04/03 10:27:10;;;;;;;4.07;3.77;;;10.00;56.80;;;;;;5044562;28;20415;-68
2022/04/03 10:29:38;;;;;;;464.33;311.33;;;10.00;56.60;;;;;;5047550;28;20434;-67
2022/04/03 10:32:06;;;;;;;13.93;10.33;;;10.00;59.00;;;;;;5035566;28;20939;-68
2022/04/03 10:34:47;;;;;;;4.70;4.40;;;9.90;59.30;;;;;;5043173;28;20421;-75
2022/04/03 10:37:26;;;;;;;4.43;4.13;;;9.90;57.60;;;;;;5048968;28;20833;-68
2022/04/03 10:39:54;;;;;;;4.70;4.40;;;9.80;59.50;;;;;;5048727;28;20428;-67
2022/04/03 10:42:25;;;;;;;4.77;4.47;;;9.70;59.90;;;;;;5036469;28;20782;-67
2022/04/03 10:45:13;;;;;;;4.07;3.77;;;9.60;58.80;;;;;;5032033;28;21054;-67
2022/04/03 10:47:42;;;;;;;4.50;4.20;;;9.50;61.50;;;;;;5032286;28;20441;-68
2022/04/03 10:50:09;;;;;;;5.30;4.70;;;9.50;63.20;;;;;;5032887;28;20440;-67
2022/04/03 10:52:38;;;;;;;8.60;4.07;;;9.50;63.60;;;;;;5032230;28;20429;-68
2022/04/03 10:55:23;;;;;;;5.53;4.40;;;9.50;65.10;;;;;;5036016;28;20413;-67
2022/04/03 10:57:58;;;;;;;4.03;3.63;;;9.50;63.30;;;;;;5036614;28;20493;-68
2022/04/03 11:00:24;;;;;;;4.37;3.97;;;9.60;62.60;;;;;;5033339;28;20420;-68
2022/04/03 11:03:13;;;;;;;4.33;4.00;;;9.70;62.40;;;;;;5041101;28;20479;-68
2022/04/03 11:05:39;;;;;;;4.27;3.97;;;9.80;62.90;;;;;;5034667;28;20198;-68
2022/04/03 11:08:07;;;;;;;4.20;3.63;;;9.90;62.60;;;;;;5052591;28;20434;-68
2022/04/03 11:10:57;;;;;;;76.63;47.67;;;9.90;62.00;;;;;;5052441;28;20457;-77
2022/04/03 11:13:34;;;;;;;8.40;6.80;;;9.80;61.40;;;;;;5053787;28;20897;-68
2022/04/03 11:16:04;;;;;;;4.20;3.90;;;9.90;60.10;;;;;;5058419;28;20764;-68
2022/04/03 11:18:48;;;;;;;4.17;3.87;;;9.90;63.60;;;;;;5071155;28;20467;-75
2022/04/03 11:21:33;;;;;;;3.63;3.43;;;10.10;63.40;;;;;;5045003;28;20453;-68
2022/04/03 11:24:03;;;;;;;4.53;4.10;;;10.50;64.60;;;;;;5052800;28;20415;-67
2022/04/03 11:26:30;;;;;;;3.73;3.53;;;10.60;61.70;;;;;;5052200;28;20419;-68
2022/04/03 11:28:56;;;;;;;4.70;4.27;;;10.90;60.20;;;;;;5053400;28;21010;-66
2022/04/03 11:31:22;;;;;;;4.03;3.70;;;11.10;61.20;;;;;;5056610;28;20499;-66
2022/04/03 11:33:48;;;;;;;4.00;3.70;;;11.40;60.50;;;;;;5051194;28;20478;-66
2022/04/03 11:36:17;;;;;;;4.23;3.80;;;11.70;60.50;;;;;;5052987;28;20412;-66
2022/04/03 11:38:47;;;;;;;3.57;3.27;;;12.00;59.30;;;;;;5049889;28;20502;-66
2022/04/03 11:41:18;;;;;;;3.83;3.53;;;12.20;59.40;;;;;;5052436;28;20408;-66
2022/04/03 11:44:08;;;;;;;4.47;4.10;;;12.40;57.70;;;;;;5050272;28;20457;-66
2022/04/03 11:46:42;;;;;;;5.70;5.30;;;12.60;60.80;;;;;;5047595;28;20478;-76
2022/04/03 11:49:18;;;;;;;3.60;3.40;;;12.90;61.00;;;;;;5031266;28;20800;-66
2022/04/03 11:51:46;;;;;;;3.87;3.57;;;13.10;58.20;;;;;;5046821;28;20422;-67
2022/04/03 11:54:14;;;;;;;3.43;3.23;;;13.10;57.10;;;;;;5047829;28;20414;-66
2022/04/03 11:56:40;;;;;;;4.33;4.03;;;13.20;57.90;;;;;;5042894;28;20900;-66
2022/04/03 11:59:09;;;;;;;3.83;3.43;;;13.40;57.30;;;;;;5045309;28;20516;-66
2022/04/03 12:01:37;;;;;;;358.73;242.37;;;13.50;55.60;;;;;;5051796;28;20403;-67
2022/04/03 12:04:12;;;;;;;16.20;11.30;;;13.60;55.50;;;;;;5050698;28;20887;-65
2022/04/03 12:06:42;;;;;;;494.33;308.13;;;13.50;56.40;;;;;;5036135;28;20469;-66
2022/04/03 12:09:13;;;;;;;64.87;28.07;;;13.40;56.80;;;;;;5044710;28;20466;-67
2022/04/03 12:11:48;;;;;;;8.83;7.10;;;13.50;56.60;;;;;;5050839;28;20405;-67
2022/04/03 12:14:31;;;;;;;57.57;41.33;;;13.50;57.20;;;;;;5051794;28;20414;-66
2022/04/03 12:17:01;;;;;;;23.47;16.30;;;13.60;58.00;;;;;;5049693;28;21024;-66
2022/04/03 12:19:28;;;;;;;52.97;36.80;;;13.70;56.10;;;;;;5051585;28;20461;-66
2022/04/03 12:21:56;;;;;;;12.10;9.70;;;13.60;56.40;;;;;;5051661;28;20543;-66
2022/04/03 12:24:29;;;;;;;3.40;3.20;;;13.60;57.60;;;;;;5036089;28;20421;-66
2022/04/03 12:26:59;;;;;;;3.53;3.33;;;13.50;58.00;;;;;;5035624;28;20415;-66
2022/04/03 12:29:26;;;;;;;3.07;2.97;;;13.40;55.70;;;;;;5043057;28;20514;-66
2022/04/03 12:31:59;;;;;;;3.93;3.63;;;13.20;55.60;;;;;;5054081;28;20419;-66
2022/04/03 12:34:26;;;;;;;5.57;3.50;;;13.00;56.50;;;;;;5051551;28;20438;-67
2022/04/03 12:36:55;;;;;;;5.57;3.40;;;12.90;56.30;;;;;;5053056;28;20475;-66
2022/04/03 12:39:28;;;;;;;3.50;3.20;;;12.80;56.30;;;;;;5046150;28;20433;-66
2022/04/03 12:41:55;;;;;;;3.40;3.20;;;12.70;56.50;;;;;;5051705;28;20785;-66
2022/04/03 12:44:21;;;;;;;3.70;3.47;;;12.70;58.30;;;;;;5052918;28;20475;-66
2022/04/03 12:46:47;;;;;;;2.93;2.83;;;12.80;58.70;;;;;;5051876;28;20916;-67
2022/04/03 12:49:19;;;;;;;3.40;3.20;;;12.90;57.90;;;;;;5054357;28;20180;-66
2022/04/03 12:51:46;;;;;;;3.43;3.23;;;13.10;57.60;;;;;;5050472;28;20698;-66
2022/04/03 12:54:13;;;;;;;3.57;3.37;;;13.20;57.80;;;;;;5054226;28;20415;-66
2022/04/03 12:59:24;;;;;;;3.50;3.30;;;13.30;55.80;;;;;;5054222;28;20433;-66